| time (UTC) | temp C | wind direction | speed KPH | gust KPH | rain 1hr cm | rain 24hr cm | rain mn cm | humidity % | barometer mb |
| 20260904054538 | 13 | 331 | 0.0 | 0.0 | 0.00 | 0.00 | 0.00 | 93 | 1019.7 |
| 20260904053037 | 13 | 331 | 0.0 | 0.0 | 0.00 | 0.00 | 0.00 | 93 | 1019.7 |
| 20260904050035 | 13 | 331 | 0.0 | 0.0 | 0.00 | 0.00 | 0.00 | 93 | 1019.6 |
| 20260904044526 | 13 | 331 | 0.0 | 0.0 | 0.00 | 0.00 | 0.00 | 93 | 1019.7 |
| 20260904043025 | 13 | 331 | 0.0 | 0.0 | 0.00 | 0.00 | 0.00 | 92 | 1019.6 |
| 20260904040037 | 14 | 331 | 0.0 | 0.0 | 0.00 | 0.00 | 0.00 | 93 | 1019.3 |
| 20260904034535 | 14 | 331 | 0.0 | 0.0 | 0.00 | 0.00 | 0.00 | 92 | 1019.4 |
| 20260904031529 | 15 | 331 | 0.0 | 0.0 | 0.00 | 0.00 | 0.00 | 90 | 1019.3 |
| 20260904024545 | 15 | 331 | 1.6 | 4.8 | 0.00 | 0.00 | 0.00 | 90 | 1019.1 |
| 20260904023021 | 15 | 306 | 0.0 | 3.2 | 0.00 | 0.00 | 0.00 | 90 | 1019.2 |
| 20260904020027 | 15 | 306 | 0.0 | 3.2 | 0.00 | 0.00 | 0.00 | 90 | 1019.3 |
| 20260904013039 | 15 | 306 | 0.0 | 3.2 | 0.00 | 0.00 | 0.00 | 90 | 1019.3 |
| 20260904011525 | 15 | 306 | 0.0 | 1.6 | 0.00 | 0.00 | 0.00 | 90 | 1019.3 |
| 20260904005309 | 15 | 306 | 0.0 | 3.2 | 0.00 | 0.00 | 0.00 | 91 | 1019.4 |
| 20260904003027 | 15 | 309 | 0.0 | 6.4 | 0.00 | 0.00 | 0.00 | 92 | 1019.6 |
| 20260904000032 | 14 | 253 | 0.0 | 0.0 | 0.00 | 0.00 | 0.00 | 92 | 1019.5 |
| 20260903233033 | 15 | 253 | 0.0 | 0.0 | 0.00 | 0.00 | 0.00 | 92 | 1019.6 |
| 20260903230027 | 15 | 253 | 0.0 | 1.6 | 0.00 | 0.00 | 0.00 | 92 | 1019.8 |
| 20260903223026 | 15 | 253 | 0.0 | 0.0 | 0.00 | 0.00 | 0.00 | 91 | 1020.0 |
| 20260903220125 | 15 | 253 | 0.0 | 0.0 | 0.00 | 0.00 | 0.00 | 91 | 1019.8 |
| 20260903214528 | 15 | 253 | 0.0 | 1.6 | 0.00 | 0.00 | 0.00 | 91 | 1019.8 |
| 20260903211538 | 16 | 253 | 0.0 | 0.0 | 0.00 | 0.00 | 0.00 | 90 | 1019.6 |
| 20260903210042 | 16 | 253 | 0.0 | 0.0 | 0.00 | 0.00 | 0.00 | 89 | 1019.5 |
| 20260903204527 | 16 | 253 | 0.0 | 0.0 | 0.00 | 0.00 | 0.00 | 88 | 1019.5 |
| 20260903201542 | 16 | 253 | 0.0 | 0.0 | 0.00 | 0.00 | 0.00 | 87 | 1019.5 |
| 20260903194545 | 17 | 253 | 0.0 | 0.0 | 0.00 | 0.00 | 0.00 | 86 | 1019.4 |
| 20260903191554 | 17 | 253 | 0.0 | 0.0 | 0.00 | 0.00 | 0.00 | 85 | 1019.2 |
| 20260903184544 | 18 | 253 | 0.0 | 0.0 | 0.00 | 0.00 | 0.00 | 83 | 1019.0 |
| 20260903181540 | 18 | 253 | 0.0 | 0.0 | 0.00 | 0.00 | 0.00 | 80 | 1018.7 |
| 20260903180051 | 19 | 253 | 0.0 | 0.0 | 0.00 | 0.00 | 0.00 | 78 | 1018.5 |
| 20260903174528 | 20 | 253 | 0.0 | 0.0 | 0.00 | 0.00 | 0.00 | 76 | 1018.4 |
| 20260903173026 | 21 | 253 | 0.0 | 0.0 | 0.00 | 0.00 | 0.00 | 75 | 1018.3 |
| 20260903171534 | 21 | 253 | 0.0 | 0.0 | 0.00 | 0.00 | 0.00 | 72 | 1018.3 |
| 20260903164545 | 22 | 253 | 0.0 | 1.6 | 0.00 | 0.00 | 0.00 | 70 | 1018.1 |
| 20260903163027 | 23 | 253 | 0.0 | 3.2 | 0.00 | 0.00 | 0.00 | 67 | 1018.1 |
| 20260903161526 | 24 | 253 | 0.0 | 3.2 | 0.00 | 0.00 | 0.00 | 63 | 1018.0 |
| 20260903154544 | 23 | 253 | 0.0 | 6.4 | 0.00 | 0.00 | 0.00 | 66 | 1017.8 |
| 20260903153027 | 23 | 258 | 0.0 | 6.4 | 0.00 | 0.00 | 0.00 | 64 | 1017.6 |
| 20260903150047 | 25 | 240 | 0.0 | 4.8 | 0.00 | 0.00 | 0.00 | 56 | 1017.5 |
| 20260903144540 | 25 | 317 | 0.0 | 6.4 | 0.00 | 0.00 | 0.00 | 55 | 1017.5 |
| 20260903143035 | 25 | 246 | 1.6 | 6.4 | 0.00 | 0.00 | 0.00 | 56 | 1017.5 |
| 20260903141541 | 25 | 243 | 4.8 | 11.3 | 0.00 | 0.00 | 0.00 | 57 | 1018.0 |
| 20260903140030 | 25 | 241 | 0.0 | 11.3 | 0.00 | 0.00 | 0.00 | 60 | 1018.3 |
| 20260903134528 | 25 | 224 | 1.6 | 14.5 | 0.00 | 0.00 | 0.00 | 57 | 1018.2 |
| 20260903131529 | 25 | 245 | 0.0 | 4.8 | 0.00 | 0.00 | 0.00 | 55 | 1018.4 |
| 20260903124543 | 23 | 214 | 0.0 | 6.4 | 0.00 | 0.00 | 0.00 | 60 | 1018.4 |
| 20260903123036 | 25 | 259 | 4.8 | 14.5 | 0.00 | 0.00 | 0.00 | 57 | 1018.4 |
| 20260903121533 | 25 | 236 | 3.2 | 9.7 | 0.00 | 0.00 | 0.00 | 56 | 1018.6 |
| 20260903114534 | 25 | 273 | 3.2 | 9.7 | 0.00 | 0.00 | 0.00 | 61 | 1018.7 |
| 20260903111533 | 25 | 227 | 3.2 | 12.9 | 0.00 | 0.00 | 0.00 | 58 | 1018.8 |
| 20260903104534 | 23 | 232 | 4.8 | 11.3 | 0.00 | 0.00 | 0.00 | 61 | 1019.3 |
| 20260903101537 | 23 | 345 | 0.0 | 4.8 | 0.00 | 0.00 | 0.00 | 62 | 1019.4 |
| 20260903100036 | 22 | 346 | 0.0 | 6.4 | 0.00 | 0.00 | 0.00 | 63 | 1019.6 |
| 20260903094537 | 22 | 224 | 1.6 | 9.7 | 0.00 | 0.00 | 0.00 | 63 | 1020.1 |
| 20260903091545 | 21 | 278 | 0.0 | 6.4 | 0.00 | 0.00 | 0.00 | 67 | 1020.3 |
| 20260903084532 | 20 | 264 | 0.0 | 4.8 | 0.00 | 0.00 | 0.00 | 70 | 1020.3 |
| 20260903081533 | 19 | 202 | 0.0 | 3.2 | 0.00 | 0.00 | 0.00 | 74 | 1020.2 |
| 20260903074541 | 18 | 202 | 1.6 | 6.4 | 0.00 | 0.00 | 0.00 | 81 | 1020.1 |
| 20260903073036 | 17 | 185 | 0.0 | 1.6 | 0.00 | 0.00 | 0.00 | 82 | 1020.3 |
| 20260903070039 | 17 | 185 | 0.0 | 3.2 | 0.00 | 0.00 | 0.00 | 84 | 1020.2 |
| 20260903063039 | 16 | 184 | 0.0 | 4.8 | 0.00 | 0.00 | 0.00 | 88 | 1020.1 |
| 20260903061544 | 15 | 267 | 0.0 | 3.2 | 0.00 | 0.00 | 0.00 | 93 | 1019.9 |